sensor_id;sensor_type;location;lat;lon;timestamp;P1;durP1;ratioP1;P2;durP2;ratioP2
72132;SDS011;60008;50.826;6.896;2024-03-07T00:02:24;32.87;;;15.43;;
72132;SDS011;60008;50.826;6.896;2024-03-07T00:05:10;35.05;;;15.27;;
72132;SDS011;60008;50.826;6.896;2024-03-07T00:07:57;31.17;;;15.50;;
72132;SDS011;60008;50.826;6.896;2024-03-07T00:10:44;34.45;;;15.57;;
72132;SDS011;60008;50.826;6.896;2024-03-07T00:13:29;34.50;;;15.30;;
72132;SDS011;60008;50.826;6.896;2024-03-07T00:16:14;34.03;;;15.00;;
72132;SDS011;60008;50.826;6.896;2024-03-07T00:19:00;32.05;;;14.48;;
72132;SDS011;60008;50.826;6.896;2024-03-07T00:21:45;34.42;;;15.45;;
72132;SDS011;60008;50.826;6.896;2024-03-07T00:24:30;35.42;;;15.73;;
72132;SDS011;60008;50.826;6.896;2024-03-07T00:27:15;35.45;;;15.68;;
72132;SDS011;60008;50.826;6.896;2024-03-07T00:30:02;31.87;;;14.80;;
72132;SDS011;60008;50.826;6.896;2024-03-07T00:32:47;33.97;;;15.43;;
72132;SDS011;60008;50.826;6.896;2024-03-07T00:35:33;39.58;;;16.25;;
72132;SDS011;60008;50.826;6.896;2024-03-07T00:38:18;34.90;;;14.50;;
72132;SDS011;60008;50.826;6.896;2024-03-07T00:41:03;36.67;;;15.50;;
72132;SDS011;60008;50.826;6.896;2024-03-07T00:43:49;34.97;;;15.60;;
72132;SDS011;60008;50.826;6.896;2024-03-07T00:46:35;37.55;;;15.23;;
72132;SDS011;60008;50.826;6.896;2024-03-07T00:49:21;30.17;;;14.15;;
72132;SDS011;60008;50.826;6.896;2024-03-07T00:52:06;34.95;;;15.02;;
72132;SDS011;60008;50.826;6.896;2024-03-07T00:54:51;35.22;;;14.63;;
72132;SDS011;60008;50.826;6.896;2024-03-07T00:57:36;37.07;;;14.97;;
72132;SDS011;60008;50.826;6.896;2024-03-07T01:00:21;33.67;;;14.88;;
72132;SDS011;60008;50.826;6.896;2024-03-07T01:03:06;33.75;;;15.13;;
72132;SDS011;60008;50.826;6.896;2024-03-07T01:05:52;31.92;;;15.38;;
72132;SDS011;60008;50.826;6.896;2024-03-07T01:08:37;32.05;;;15.10;;
72132;SDS011;60008;50.826;6.896;2024-03-07T01:11:23;33.57;;;15.30;;
72132;SDS011;60008;50.826;6.896;2024-03-07T01:14:08;33.30;;;15.10;;
72132;SDS011;60008;50.826;6.896;2024-03-07T01:16:53;32.28;;;14.63;;
72132;SDS011;60008;50.826;6.896;2024-03-07T01:19:38;31.02;;;14.20;;
72132;SDS011;60008;50.826;6.896;2024-03-07T01:22:23;35.60;;;15.25;;
72132;SDS011;60008;50.826;6.896;2024-03-07T01:25:08;31.30;;;14.43;;
72132;SDS011;60008;50.826;6.896;2024-03-07T01:27:53;34.15;;;13.88;;
72132;SDS011;60008;50.826;6.896;2024-03-07T01:30:38;31.38;;;14.20;;
72132;SDS011;60008;50.826;6.896;2024-03-07T01:33:23;32.08;;;14.50;;
72132;SDS011;60008;50.826;6.896;2024-03-07T01:36:08;33.15;;;14.68;;
72132;SDS011;60008;50.826;6.896;2024-03-07T01:38:53;31.83;;;14.73;;
72132;SDS011;60008;50.826;6.896;2024-03-07T01:41:39;30.85;;;13.93;;
72132;SDS011;60008;50.826;6.896;2024-03-07T01:44:25;29.98;;;13.80;;
72132;SDS011;60008;50.826;6.896;2024-03-07T01:47:10;33.15;;;14.73;;
72132;SDS011;60008;50.826;6.896;2024-03-07T01:49:55;33.97;;;14.88;;
72132;SDS011;60008;50.826;6.896;2024-03-07T01:52:41;32.00;;;13.57;;
72132;SDS011;60008;50.826;6.896;2024-03-07T01:55:26;32.47;;;13.88;;
72132;SDS011;60008;50.826;6.896;2024-03-07T01:58:11;29.48;;;13.80;;
72132;SDS011;60008;50.826;6.896;2024-03-07T02:00:59;31.10;;;14.13;;
72132;SDS011;60008;50.826;6.896;2024-03-07T02:03:45;35.22;;;14.50;;
72132;SDS011;60008;50.826;6.896;2024-03-07T02:06:30;33.97;;;13.93;;
72132;SDS011;60008;50.826;6.896;2024-03-07T02:09:15;33.03;;;14.25;;
72132;SDS011;60008;50.826;6.896;2024-03-07T02:12:00;33.03;;;14.48;;
72132;SDS011;60008;50.826;6.896;2024-03-07T02:14:46;31.23;;;14.25;;
72132;SDS011;60008;50.826;6.896;2024-03-07T02:17:32;31.98;;;13.85;;
72132;SDS011;60008;50.826;6.896;2024-03-07T02:20:17;32.07;;;14.20;;
72132;SDS011;60008;50.826;6.896;2024-03-07T02:23:02;34.97;;;14.75;;
72132;SDS011;60008;50.826;6.896;2024-03-07T02:25:48;32.47;;;13.75;;
72132;SDS011;60008;50.826;6.896;2024-03-07T02:28:34;33.67;;;14.27;;
72132;SDS011;60008;50.826;6.896;2024-03-07T02:31:19;32.15;;;13.30;;
72132;SDS011;60008;50.826;6.896;2024-03-07T02:34:04;33.27;;;13.90;;
72132;SDS011;60008;50.826;6.896;2024-03-07T02:36:49;32.03;;;13.95;;
72132;SDS011;60008;50.826;6.896;2024-03-07T02:39:36;32.17;;;13.43;;
72132;SDS011;60008;50.826;6.896;2024-03-07T02:42:21;34.30;;;13.15;;
72132;SDS011;60008;50.826;6.896;2024-03-07T02:45:06;33.30;;;13.55;;
72132;SDS011;60008;50.826;6.896;2024-03-07T02:47:52;31.63;;;13.40;;
72132;SDS011;60008;50.826;6.896;2024-03-07T02:50:38;38.33;;;15.02;;
72132;SDS011;60008;50.826;6.896;2024-03-07T02:53:23;35.70;;;14.50;;
72132;SDS011;60008;50.826;6.896;2024-03-07T02:56:08;32.35;;;13.80;;
72132;SDS011;60008;50.826;6.896;2024-03-07T02:58:54;32.38;;;14.40;;
72132;SDS011;60008;50.826;6.896;2024-03-07T03:01:39;32.00;;;13.50;;
72132;SDS011;60008;50.826;6.896;2024-03-07T03:04:24;35.22;;;14.18;;
72132;SDS011;60008;50.826;6.896;2024-03-07T03:07:09;31.77;;;13.98;;
72132;SDS011;60008;50.826;6.896;2024-03-07T03:09:55;35.50;;;13.35;;
72132;SDS011;60008;50.826;6.896;2024-03-07T03:12:40;31.10;;;13.27;;
72132;SDS011;60008;50.826;6.896;2024-03-07T03:15:25;31.30;;;13.10;;
72132;SDS011;60008;50.826;6.896;2024-03-07T03:18:10;33.67;;;13.00;;
72132;SDS011;60008;50.826;6.896;2024-03-07T03:20:57;31.52;;;13.10;;
72132;SDS011;60008;50.826;6.896;2024-03-07T03:23:42;35.03;;;13.75;;
72132;SDS011;60008;50.826;6.896;2024-03-07T03:26:27;31.25;;;13.38;;
72132;SDS011;60008;50.826;6.896;2024-03-07T03:29:12;35.03;;;14.27;;
72132;SDS011;60008;50.826;6.896;2024-03-07T03:31:58;32.35;;;14.45;;
72132;SDS011;60008;50.826;6.896;2024-03-07T03:34:44;29.23;;;13.15;;
72132;SDS011;60008;50.826;6.896;2024-03-07T03:37:29;28.75;;;12.55;;
72132;SDS011;60008;50.826;6.896;2024-03-07T03:40:14;33.13;;;13.20;;
72132;SDS011;60008;50.826;6.896;2024-03-07T03:42:59;31.77;;;13.80;;
72132;SDS011;60008;50.826;6.896;2024-03-07T03:45:45;31.67;;;13.00;;
72132;SDS011;60008;50.826;6.896;2024-03-07T03:48:32;29.25;;;12.82;;
72132;SDS011;60008;50.826;6.896;2024-03-07T03:51:18;32.17;;;13.48;;
72132;SDS011;60008;50.826;6.896;2024-03-07T03:54:03;28.17;;;12.18;;
72132;SDS011;60008;50.826;6.896;2024-03-07T03:56:48;33.93;;;13.27;;
72132;SDS011;60008;50.826;6.896;2024-03-07T03:59:33;32.22;;;12.73;;
72132;SDS011;60008;50.826;6.896;2024-03-07T04:02:18;33.78;;;12.75;;
72132;SDS011;60008;50.826;6.896;2024-03-07T04:05:04;31.33;;;13.35;;
72132;SDS011;60008;50.826;6.896;2024-03-07T04:07:49;31.45;;;13.27;;
72132;SDS011;60008;50.826;6.896;2024-03-07T04:10:34;30.63;;;12.83;;
72132;SDS011;60008;50.826;6.896;2024-03-07T04:13:19;32.13;;;13.05;;
72132;SDS011;60008;50.826;6.896;2024-03-07T04:16:06;32.72;;;12.68;;
72132;SDS011;60008;50.826;6.896;2024-03-07T04:18:53;33.60;;;13.65;;
72132;SDS011;60008;50.826;6.896;2024-03-07T04:21:38;31.08;;;13.43;;
72132;SDS011;60008;50.826;6.896;2024-03-07T04:24:24;35.53;;;14.30;;
72132;SDS011;60008;50.826;6.896;2024-03-07T04:27:09;34.28;;;14.52;;
72132;SDS011;60008;50.826;6.896;2024-03-07T04:29:55;32.45;;;13.45;;
72132;SDS011;60008;50.826;6.896;2024-03-07T04:32:40;37.42;;;13.63;;
72132;SDS011;60008;50.826;6.896;2024-03-07T04:35:27;28.95;;;13.10;;
72132;SDS011;60008;50.826;6.896;2024-03-07T04:38:12;29.80;;;12.80;;
72132;SDS011;60008;50.826;6.896;2024-03-07T04:41:00;30.75;;;13.15;;
72132;SDS011;60008;50.826;6.896;2024-03-07T04:43:44;32.00;;;13.27;;
72132;SDS011;60008;50.826;6.896;2024-03-07T04:46:29;32.65;;;13.20;;
72132;SDS011;60008;50.826;6.896;2024-03-07T04:49:15;30.48;;;12.55;;
72132;SDS011;60008;50.826;6.896;2024-03-07T04:52:01;29.53;;;11.77;;
72132;SDS011;60008;50.826;6.896;2024-03-07T04:54:47;32.00;;;12.38;;
72132;SDS011;60008;50.826;6.896;2024-03-07T04:57:32;29.75;;;13.02;;
72132;SDS011;60008;50.826;6.896;2024-03-07T05:00:17;35.55;;;12.32;;
72132;SDS011;60008;50.826;6.896;2024-03-07T05:03:05;31.85;;;13.00;;
72132;SDS011;60008;50.826;6.896;2024-03-07T05:05:51;30.13;;;12.53;;
72132;SDS011;60008;50.826;6.896;2024-03-07T05:08:36;28.17;;;12.50;;
72132;SDS011;60008;50.826;6.896;2024-03-07T05:11:21;31.55;;;12.70;;
72132;SDS011;60008;50.826;6.896;2024-03-07T05:14:06;31.67;;;13.48;;
72132;SDS011;60008;50.826;6.896;2024-03-07T05:16:51;34.78;;;12.70;;
72132;SDS011;60008;50.826;6.896;2024-03-07T05:19:53;32.47;;;13.27;;
72132;SDS011;60008;50.826;6.896;2024-03-07T05:22:38;35.97;;;14.15;;
72132;SDS011;60008;50.826;6.896;2024-03-07T05:25:25;30.02;;;12.32;;
72132;SDS011;60008;50.826;6.896;2024-03-07T05:28:11;28.42;;;11.95;;
72132;SDS011;60008;50.826;6.896;2024-03-07T05:30:56;28.40;;;11.93;;
72132;SDS011;60008;50.826;6.896;2024-03-07T05:33:41;31.50;;;12.47;;
72132;SDS011;60008;50.826;6.896;2024-03-07T05:36:26;35.20;;;13.43;;
72132;SDS011;60008;50.826;6.896;2024-03-07T05:39:12;31.67;;;13.18;;
72132;SDS011;60008;50.826;6.896;2024-03-07T05:41:58;31.95;;;13.00;;
72132;SDS011;60008;50.826;6.896;2024-03-07T05:44:44;30.10;;;12.45;;
72132;SDS011;60008;50.826;6.896;2024-03-07T05:47:29;37.70;;;13.33;;
72132;SDS011;60008;50.826;6.896;2024-03-07T05:50:15;31.00;;;13.02;;
72132;SDS011;60008;50.826;6.896;2024-03-07T05:53:01;31.70;;;12.95;;
72132;SDS011;60008;50.826;6.896;2024-03-07T05:55:46;28.08;;;12.70;;
72132;SDS011;60008;50.826;6.896;2024-03-07T05:58:31;32.58;;;13.60;;
72132;SDS011;60008;50.826;6.896;2024-03-07T06:01:17;32.37;;;12.43;;
72132;SDS011;60008;50.826;6.896;2024-03-07T06:04:03;29.17;;;12.98;;
72132;SDS011;60008;50.826;6.896;2024-03-07T06:06:52;32.58;;;13.30;;
72132;SDS011;60008;50.826;6.896;2024-03-07T06:09:37;26.48;;;10.93;;
72132;SDS011;60008;50.826;6.896;2024-03-07T06:12:23;32.15;;;12.77;;
72132;SDS011;60008;50.826;6.896;2024-03-07T06:15:12;26.53;;;11.63;;
72132;SDS011;60008;50.826;6.896;2024-03-07T06:17:57;29.60;;;12.02;;
72132;SDS011;60008;50.826;6.896;2024-03-07T06:20:43;31.30;;;12.07;;
72132;SDS011;60008;50.826;6.896;2024-03-07T06:23:28;26.25;;;12.25;;
72132;SDS011;60008;50.826;6.896;2024-03-07T06:26:14;30.50;;;12.32;;
72132;SDS011;60008;50.826;6.896;2024-03-07T06:29:01;25.47;;;11.13;;
72132;SDS011;60008;50.826;6.896;2024-03-07T06:31:46;29.55;;;11.75;;
72132;SDS011;60008;50.826;6.896;2024-03-07T06:34:32;29.30;;;11.80;;
72132;SDS011;60008;50.826;6.896;2024-03-07T06:37:17;29.35;;;12.05;;
72132;SDS011;60008;50.826;6.896;2024-03-07T06:40:03;28.35;;;11.32;;
72132;SDS011;60008;50.826;6.896;2024-03-07T06:42:54;29.67;;;11.53;;
72132;SDS011;60008;50.826;6.896;2024-03-07T06:45:39;28.40;;;11.27;;
72132;SDS011;60008;50.826;6.896;2024-03-07T06:48:26;26.23;;;11.05;;
72132;SDS011;60008;50.826;6.896;2024-03-07T06:51:11;28.20;;;11.00;;
72132;SDS011;60008;50.826;6.896;2024-03-07T06:53:57;26.17;;;10.65;;
72132;SDS011;60008;50.826;6.896;2024-03-07T06:56:44;25.03;;;11.13;;
72132;SDS011;60008;50.826;6.896;2024-03-07T06:59:30;27.70;;;11.30;;
72132;SDS011;60008;50.826;6.896;2024-03-07T07:02:16;28.80;;;11.15;;
72132;SDS011;60008;50.826;6.896;2024-03-07T07:05:01;27.92;;;11.80;;
72132;SDS011;60008;50.826;6.896;2024-03-07T07:07:46;20.60;;;8.48;;
72132;SDS011;60008;50.826;6.896;2024-03-07T07:10:32;25.67;;;10.67;;
72132;SDS011;60008;50.826;6.896;2024-03-07T07:13:17;26.50;;;11.82;;
72132;SDS011;60008;50.826;6.896;2024-03-07T07:16:03;26.65;;;10.07;;
72132;SDS011;60008;50.826;6.896;2024-03-07T07:18:48;18.30;;;8.18;;
72132;SDS011;60008;50.826;6.896;2024-03-07T07:21:33;27.17;;;11.00;;
72132;SDS011;60008;50.826;6.896;2024-03-07T07:24:19;24.70;;;10.97;;
72132;SDS011;60008;50.826;6.896;2024-03-07T07:27:08;20.02;;;8.43;;
72132;SDS011;60008;50.826;6.896;2024-03-07T07:29:53;24.33;;;10.52;;
72132;SDS011;60008;50.826;6.896;2024-03-07T07:32:40;28.30;;;12.23;;
72132;SDS011;60008;50.826;6.896;2024-03-07T07:35:26;17.92;;;8.82;;
72132;SDS011;60008;50.826;6.896;2024-03-07T07:38:11;24.87;;;11.20;;
72132;SDS011;60008;50.826;6.896;2024-03-07T07:40:57;26.83;;;10.57;;
72132;SDS011;60008;50.826;6.896;2024-03-07T07:43:43;22.38;;;9.73;;
72132;SDS011;60008;50.826;6.896;2024-03-07T07:46:28;23.63;;;9.35;;
72132;SDS011;60008;50.826;6.896;2024-03-07T07:49:13;21.13;;;9.85;;
72132;SDS011;60008;50.826;6.896;2024-03-07T07:51:58;29.93;;;12.33;;
72132;SDS011;60008;50.826;6.896;2024-03-07T07:54:43;13.10;;;5.03;;
72132;SDS011;60008;50.826;6.896;2024-03-07T07:57:28;9.55;;;4.88;;
72132;SDS011;60008;50.826;6.896;2024-03-07T08:00:14;22.50;;;9.88;;
72132;SDS011;60008;50.826;6.896;2024-03-07T08:03:07;20.83;;;8.75;;
72132;SDS011;60008;50.826;6.896;2024-03-07T08:05:52;25.87;;;10.27;;
72132;SDS011;60008;50.826;6.896;2024-03-07T08:08:39;22.98;;;10.07;;
72132;SDS011;60008;50.826;6.896;2024-03-07T08:11:24;23.75;;;10.35;;
72132;SDS011;60008;50.826;6.896;2024-03-07T08:14:09;12.00;;;5.93;;
72132;SDS011;60008;50.826;6.896;2024-03-07T08:16:54;29.52;;;10.18;;
72132;SDS011;60008;50.826;6.896;2024-03-07T08:19:40;24.43;;;10.13;;
72132;SDS011;60008;50.826;6.896;2024-03-07T08:22:26;24.45;;;10.73;;
72132;SDS011;60008;50.826;6.896;2024-03-07T08:25:13;31.02;;;13.50;;
72132;SDS011;60008;50.826;6.896;2024-03-07T08:27:58;28.83;;;11.30;;
72132;SDS011;60008;50.826;6.896;2024-03-07T08:30:44;28.30;;;12.77;;
72132;SDS011;60008;50.826;6.896;2024-03-07T08:33:29;24.80;;;11.77;;
72132;SDS011;60008;50.826;6.896;2024-03-07T08:36:18;27.05;;;10.85;;
72132;SDS011;60008;50.826;6.896;2024-03-07T08:39:03;28.73;;;11.80;;
72132;SDS011;60008;50.826;6.896;2024-03-07T08:41:48;25.88;;;11.57;;
72132;SDS011;60008;50.826;6.896;2024-03-07T08:44:33;12.48;;;4.50;;
72132;SDS011;60008;50.826;6.896;2024-03-07T08:47:18;14.27;;;5.47;;
72132;SDS011;60008;50.826;6.896;2024-03-07T08:50:04;11.50;;;5.47;;
72132;SDS011;60008;50.826;6.896;2024-03-07T08:52:55;22.95;;;9.38;;
72132;SDS011;60008;50.826;6.896;2024-03-07T08:55:40;18.33;;;7.88;;
72132;SDS011;60008;50.826;6.896;2024-03-07T08:58:27;26.42;;;12.07;;
72132;SDS011;60008;50.826;6.896;2024-03-07T09:01:12;22.03;;;10.13;;
72132;SDS011;60008;50.826;6.896;2024-03-07T09:03:57;22.88;;;10.13;;
72132;SDS011;60008;50.826;6.896;2024-03-07T09:06:44;26.02;;;10.68;;
72132;SDS011;60008;50.826;6.896;2024-03-07T09:09:31;16.73;;;7.68;;
72132;SDS011;60008;50.826;6.896;2024-03-07T09:12:17;18.80;;;7.10;;
72132;SDS011;60008;50.826;6.896;2024-03-07T09:15:03;14.40;;;7.00;;
72132;SDS011;60008;50.826;6.896;2024-03-07T09:17:49;22.30;;;9.18;;
72132;SDS011;60008;50.826;6.896;2024-03-07T09:20:34;10.20;;;5.00;;
72132;SDS011;60008;50.826;6.896;2024-03-07T09:23:19;14.32;;;6.72;;
72132;SDS011;60008;50.826;6.896;2024-03-07T09:26:05;10.73;;;4.80;;
72132;SDS011;60008;50.826;6.896;2024-03-07T09:28:52;10.73;;;5.83;;
72132;SDS011;60008;50.826;6.896;2024-03-07T09:31:37;10.63;;;5.10;;
72132;SDS011;60008;50.826;6.896;2024-03-07T09:34:24;12.30;;;5.55;;
72132;SDS011;60008;50.826;6.896;2024-03-07T09:37:12;13.20;;;6.82;;
72132;SDS011;60008;50.826;6.896;2024-03-07T09:39:57;9.10;;;4.78;;
72132;SDS011;60008;50.826;6.896;2024-03-07T09:42:43;13.00;;;6.20;;
72132;SDS011;60008;50.826;6.896;2024-03-07T09:45:30;11.98;;;5.82;;
72132;SDS011;60008;50.826;6.896;2024-03-07T09:48:18;17.90;;;7.55;;
72132;SDS011;60008;50.826;6.896;2024-03-07T09:51:04;11.48;;;4.80;;
72132;SDS011;60008;50.826;6.896;2024-03-07T09:53:50;17.50;;;7.57;;
72132;SDS011;60008;50.826;6.896;2024-03-07T09:56:36;10.37;;;5.60;;
72132;SDS011;60008;50.826;6.896;2024-03-07T09:59:22;20.80;;;8.35;;
72132;SDS011;60008;50.826;6.896;2024-03-07T10:02:11;14.85;;;6.70;;
72132;SDS011;60008;50.826;6.896;2024-03-07T10:04:58;19.45;;;9.63;;
72132;SDS011;60008;50.826;6.896;2024-03-07T10:07:44;8.77;;;4.40;;
72132;SDS011;60008;50.826;6.896;2024-03-07T10:10:30;21.67;;;9.57;;
72132;SDS011;60008;50.826;6.896;2024-03-07T10:13:16;9.73;;;4.88;;
72132;SDS011;60008;50.826;6.896;2024-03-07T10:16:02;17.83;;;8.32;;
72132;SDS011;60008;50.826;6.896;2024-03-07T10:18:49;12.65;;;6.32;;
72132;SDS011;60008;50.826;6.896;2024-03-07T10:21:35;10.43;;;5.38;;
72132;SDS011;60008;50.826;6.896;2024-03-07T10:24:23;15.97;;;6.70;;
72132;SDS011;60008;50.826;6.896;2024-03-07T10:27:09;17.77;;;9.90;;
72132;SDS011;60008;50.826;6.896;2024-03-07T10:29:54;15.68;;;7.03;;
72132;SDS011;60008;50.826;6.896;2024-03-07T10:32:41;17.75;;;7.68;;
72132;SDS011;60008;50.826;6.896;2024-03-07T10:35:26;12.73;;;5.07;;
72132;SDS011;60008;50.826;6.896;2024-03-07T10:38:11;15.73;;;7.77;;
72132;SDS011;60008;50.826;6.896;2024-03-07T10:40:59;15.93;;;7.15;;
72132;SDS011;60008;50.826;6.896;2024-03-07T10:43:44;17.77;;;8.77;;
72132;SDS011;60008;50.826;6.896;2024-03-07T10:46:33;23.60;;;10.15;;
72132;SDS011;60008;50.826;6.896;2024-03-07T10:49:20;18.58;;;8.85;;
72132;SDS011;60008;50.826;6.896;2024-03-07T10:55:08;23.60;;;8.93;;
72132;SDS011;60008;50.826;6.896;2024-03-07T10:58:02;20.55;;;8.00;;
72132;SDS011;60008;50.826;6.896;2024-03-07T11:00:52;20.88;;;9.00;;
72132;SDS011;60008;50.826;6.896;2024-03-07T11:03:41;11.65;;;5.78;;
72132;SDS011;60008;50.826;6.896;2024-03-07T11:06:27;17.97;;;8.20;;
72132;SDS011;60008;50.826;6.896;2024-03-07T11:09:13;17.42;;;7.70;;
72132;SDS011;60008;50.826;6.896;2024-03-07T11:12:02;17.73;;;8.20;;
72132;SDS011;60008;50.826;6.896;2024-03-07T11:14:49;19.45;;;8.63;;
72132;SDS011;60008;50.826;6.896;2024-03-07T11:17:35;12.25;;;6.00;;
72132;SDS011;60008;50.826;6.896;2024-03-07T11:20:22;16.07;;;7.03;;
72132;SDS011;60008;50.826;6.896;2024-03-07T11:23:24;10.43;;;5.10;;
72132;SDS011;60008;50.826;6.896;2024-03-07T11:26:14;15.07;;;7.07;;
72132;SDS011;60008;50.826;6.896;2024-03-07T11:29:00;17.90;;;7.93;;
72132;SDS011;60008;50.826;6.896;2024-03-07T11:31:45;18.95;;;9.07;;
72132;SDS011;60008;50.826;6.896;2024-03-07T11:34:31;20.13;;;8.47;;
72132;SDS011;60008;50.826;6.896;2024-03-07T11:37:16;14.45;;;7.70;;
72132;SDS011;60008;50.826;6.896;2024-03-07T11:40:02;17.90;;;9.02;;
72132;SDS011;60008;50.826;6.896;2024-03-07T11:42:53;18.77;;;8.07;;
72132;SDS011;60008;50.826;6.896;2024-03-07T11:45:41;10.57;;;5.57;;
72132;SDS011;60008;50.826;6.896;2024-03-07T11:48:30;16.17;;;7.43;;
72132;SDS011;60008;50.826;6.896;2024-03-07T11:51:18;11.43;;;5.75;;
72132;SDS011;60008;50.826;6.896;2024-03-07T11:54:09;16.98;;;8.75;;
72132;SDS011;60008;50.826;6.896;2024-03-07T11:56:59;20.10;;;8.95;;
72132;SDS011;60008;50.826;6.896;2024-03-07T11:59:45;17.52;;;9.05;;
72132;SDS011;60008;50.826;6.896;2024-03-07T12:02:31;12.93;;;6.37;;
72132;SDS011;60008;50.826;6.896;2024-03-07T12:05:16;17.13;;;8.10;;
72132;SDS011;60008;50.826;6.896;2024-03-07T12:08:01;16.17;;;8.40;;
72132;SDS011;60008;50.826;6.896;2024-03-07T12:10:50;7.45;;;3.67;;
72132;SDS011;60008;50.826;6.896;2024-03-07T12:13:40;8.63;;;3.92;;
72132;SDS011;60008;50.826;6.896;2024-03-07T12:16:26;20.23;;;7.73;;
72132;SDS011;60008;50.826;6.896;2024-03-07T12:19:14;10.75;;;5.47;;
72132;SDS011;60008;50.826;6.896;2024-03-07T12:22:02;9.45;;;4.65;;
72132;SDS011;60008;50.826;6.896;2024-03-07T12:24:47;8.98;;;4.60;;
72132;SDS011;60008;50.826;6.896;2024-03-07T12:27:33;20.00;;;8.38;;
72132;SDS011;60008;50.826;6.896;2024-03-07T12:30:18;16.33;;;8.00;;
72132;SDS011;60008;50.826;6.896;2024-03-07T12:33:04;13.80;;;7.20;;
72132;SDS011;60008;50.826;6.896;2024-03-07T12:35:50;20.33;;;7.78;;
72132;SDS011;60008;50.826;6.896;2024-03-07T12:38:37;15.52;;;7.40;;
72132;SDS011;60008;50.826;6.896;2024-03-07T12:41:23;15.65;;;6.63;;
72132;SDS011;60008;50.826;6.896;2024-03-07T12:44:09;17.47;;;8.57;;
72132;SDS011;60008;50.826;6.896;2024-03-07T12:46:58;11.05;;;4.88;;
72132;SDS011;60008;50.826;6.896;2024-03-07T12:49:44;10.05;;;4.75;;
72132;SDS011;60008;50.826;6.896;2024-03-07T12:52:29;12.48;;;4.78;;
72132;SDS011;60008;50.826;6.896;2024-03-07T12:55:14;11.38;;;6.03;;
72132;SDS011;60008;50.826;6.896;2024-03-07T12:58:03;12.23;;;5.73;;
72132;SDS011;60008;50.826;6.896;2024-03-07T13:00:49;14.00;;;5.45;;
72132;SDS011;60008;50.826;6.896;2024-03-07T13:03:34;10.05;;;4.78;;
72132;SDS011;60008;50.826;6.896;2024-03-07T13:06:20;10.45;;;4.15;;
72132;SDS011;60008;50.826;6.896;2024-03-07T13:09:10;12.65;;;5.00;;
72132;SDS011;60008;50.826;6.896;2024-03-07T13:11:57;10.73;;;4.80;;
72132;SDS011;60008;50.826;6.896;2024-03-07T13:14:42;8.05;;;3.72;;
72132;SDS011;60008;50.826;6.896;2024-03-07T13:17:29;9.95;;;4.68;;
72132;SDS011;60008;50.826;6.896;2024-03-07T13:20:14;9.90;;;3.72;;
72132;SDS011;60008;50.826;6.896;2024-03-07T13:22:59;10.13;;;3.92;;
72132;SDS011;60008;50.826;6.896;2024-03-07T13:25:45;8.57;;;3.97;;
72132;SDS011;60008;50.826;6.896;2024-03-07T13:28:33;10.85;;;5.28;;
72132;SDS011;60008;50.826;6.896;2024-03-07T13:31:19;13.15;;;5.38;;
72132;SDS011;60008;50.826;6.896;2024-03-07T13:34:04;6.20;;;3.28;;
72132;SDS011;60008;50.826;6.896;2024-03-07T13:36:49;10.48;;;4.60;;
72132;SDS011;60008;50.826;6.896;2024-03-07T13:39:35;7.17;;;2.73;;
72132;SDS011;60008;50.826;6.896;2024-03-07T13:42:20;16.23;;;5.13;;
72132;SDS011;60008;50.826;6.896;2024-03-07T13:45:06;9.35;;;4.03;;
72132;SDS011;60008;50.826;6.896;2024-03-07T13:47:56;12.13;;;5.88;;
72132;SDS011;60008;50.826;6.896;2024-03-07T13:50:43;13.73;;;5.40;;
72132;SDS011;60008;50.826;6.896;2024-03-07T13:53:43;11.73;;;5.50;;
72132;SDS011;60008;50.826;6.896;2024-03-07T13:57:12;7.57;;;4.35;;
72132;SDS011;60008;50.826;6.896;2024-03-07T14:00:07;13.90;;;6.18;;
72132;SDS011;60008;50.826;6.896;2024-03-07T14:06:03;12.65;;;5.95;;
72132;SDS011;60008;50.826;6.896;2024-03-07T14:11:59;11.98;;;5.97;;
72132;SDS011;60008;50.826;6.896;2024-03-07T14:15:18;12.52;;;5.15;;
72132;SDS011;60008;50.826;6.896;2024-03-07T14:24:45;15.93;;;5.43;;
72132;SDS011;60008;50.826;6.896;2024-03-07T14:27:36;14.00;;;5.20;;
72132;SDS011;60008;50.826;6.896;2024-03-07T14:30:36;6.85;;;3.50;;
72132;SDS011;60008;50.826;6.896;2024-03-07T14:36:40;10.13;;;5.50;;
72132;SDS011;60008;50.826;6.896;2024-03-07T14:39:30;11.33;;;4.90;;
72132;SDS011;60008;50.826;6.896;2024-03-07T14:42:20;12.48;;;5.70;;
72132;SDS011;60008;50.826;6.896;2024-03-07T14:45:04;13.35;;;5.53;;
72132;SDS011;60008;50.826;6.896;2024-03-07T14:47:52;15.25;;;4.32;;
72132;SDS011;60008;50.826;6.896;2024-03-07T14:50:39;6.95;;;3.22;;
72132;SDS011;60008;50.826;6.896;2024-03-07T14:53:26;6.30;;;2.73;;
72132;SDS011;60008;50.826;6.896;2024-03-07T14:56:11;12.63;;;5.03;;
72132;SDS011;60008;50.826;6.896;2024-03-07T14:58:56;12.45;;;5.53;;
72132;SDS011;60008;50.826;6.896;2024-03-07T15:01:41;12.52;;;4.82;;
72132;SDS011;60008;50.826;6.896;2024-03-07T15:04:27;13.57;;;5.22;;
72132;SDS011;60008;50.826;6.896;2024-03-07T15:07:16;30.67;;;4.50;;
72132;SDS011;60008;50.826;6.896;2024-03-07T15:10:01;12.23;;;5.22;;
72132;SDS011;60008;50.826;6.896;2024-03-07T15:12:51;10.02;;;4.90;;
72132;SDS011;60008;50.826;6.896;2024-03-07T15:15:38;8.40;;;4.00;;
72132;SDS011;60008;50.826;6.896;2024-03-07T15:18:25;11.90;;;5.30;;
72132;SDS011;60008;50.826;6.896;2024-03-07T15:21:11;11.93;;;5.13;;
72132;SDS011;60008;50.826;6.896;2024-03-07T15:24:03;6.50;;;2.88;;
72132;SDS011;60008;50.826;6.896;2024-03-07T15:26:49;4.13;;;2.13;;
72132;SDS011;60008;50.826;6.896;2024-03-07T15:29:34;8.15;;;3.47;;
72132;SDS011;60008;50.826;6.896;2024-03-07T15:32:21;5.20;;;2.60;;
72132;SDS011;60008;50.826;6.896;2024-03-07T15:35:06;6.97;;;2.80;;
72132;SDS011;60008;50.826;6.896;2024-03-07T15:37:56;8.13;;;3.65;;
72132;SDS011;60008;50.826;6.896;2024-03-07T15:40:41;12.05;;;5.88;;
72132;SDS011;60008;50.826;6.896;2024-03-07T15:43:26;10.57;;;5.28;;
72132;SDS011;60008;50.826;6.896;2024-03-07T15:46:12;9.05;;;3.72;;
72132;SDS011;60008;50.826;6.896;2024-03-07T15:49:00;9.73;;;4.03;;
72132;SDS011;60008;50.826;6.896;2024-03-07T15:51:47;12.13;;;5.07;;
72132;SDS011;60008;50.826;6.896;2024-03-07T15:54:32;6.15;;;2.28;;
72132;SDS011;60008;50.826;6.896;2024-03-07T15:57:17;8.82;;;3.47;;
72132;SDS011;60008;50.826;6.896;2024-03-07T16:00:02;11.13;;;5.32;;
72132;SDS011;60008;50.826;6.896;2024-03-07T16:03:07;10.50;;;3.43;;
72132;SDS011;60008;50.826;6.896;2024-03-07T16:05:55;18.42;;;2.78;;
72132;SDS011;60008;50.826;6.896;2024-03-07T16:08:41;14.80;;;5.18;;
72132;SDS011;60008;50.826;6.896;2024-03-07T16:11:27;14.02;;;5.57;;
72132;SDS011;60008;50.826;6.896;2024-03-07T16:14:12;10.70;;;5.20;;
72132;SDS011;60008;50.826;6.896;2024-03-07T16:16:57;10.13;;;4.97;;
72132;SDS011;60008;50.826;6.896;2024-03-07T16:19:42;9.32;;;4.15;;
72132;SDS011;60008;50.826;6.896;2024-03-07T16:22:27;7.55;;;2.95;;
72132;SDS011;60008;50.826;6.896;2024-03-07T16:25:12;6.07;;;2.95;;
72132;SDS011;60008;50.826;6.896;2024-03-07T16:28:00;7.65;;;2.80;;
72132;SDS011;60008;50.826;6.896;2024-03-07T16:30:45;10.30;;;5.07;;
72132;SDS011;60008;50.826;6.896;2024-03-07T16:33:31;5.95;;;2.65;;
72132;SDS011;60008;50.826;6.896;2024-03-07T16:36:16;12.38;;;5.43;;
72132;SDS011;60008;50.826;6.896;2024-03-07T16:39:01;6.88;;;2.55;;
72132;SDS011;60008;50.826;6.896;2024-03-07T16:41:52;5.78;;;2.50;;